Impacts METAR Board
IDs:

KSLC - Salt Lake City Intl, UT, US

Updated at: 0900 UTC 18 Jan 2019
Potential Impact None Slight Moderate High
Time 17/21Z 17/22Z 17/23Z 18/00Z 18/01Z 18/02Z 18/03Z 18/04Z 18/05Z 18/06Z 18/07Z 18/08Z 18/09Z
Temp41 40 38 38 38 39 40 38 37 38 36 36 36
Dewpt29 29 27 31 29 31 31 30 32 30 32 31 32
Altim29.88 29.94 29.93 29.89 29.87 29.85 29.87 29.87 29.92 29.96 29.97 29.98 29.99
VIS6 4 5 10 7 9 7 8 6 10 10 10 10
CIG35 18 15 85 25 70 22 23 27 39 55 120 60
CoverOVCOVCOVCOVCOVCBKNOVCOVCOVCBKNBKNBKNBKN
FltCatVFRMVFRMVFRVFRMVFRVFRMVFRMVFRMVFRVFRVFRVFRVFR
WX-RARARA---RA-RA-RA-RA-RA--------
WDir220170120180120140150160200001800
WSpd10 7 12 6 6 7 11 7 8 0 0 3 0
WGst-- -- -- -- -- -- -- -- -- -- -- -- --
Raw hourly METARs
KSLC 172054Z 22010KT 6SM -RA FEW027 OVC035 05/M02 A2988 RMK AO2 PK WND 17026/2000 SLP113 P0003 60004 T00501017 55015
KSLC 172201Z 17007KT 4SM RA SCT013 BKN018 OVC027 04/M02 A2994 RMK AO2 P0003 T00441017
KSLC 172254Z 12012KT 5SM RA BKN015 OVC020 03/M03 A2993 RMK AO2 WSHFT 2231 SLP131 P0018 T00331028
KSLC 172354Z 18006KT 10SM SCT070 BKN085 OVC110 03/M01 A2989 RMK AO2 LTG DSNT W RAE26 SLP114 CB DSNT SW-W BINOVC P0003 60046 T00331006 10078 20028 58014
KSLC 180054Z 12006KT 7SM -RA SCT012 BKN025 OVC038 03/M02 A2987 RMK AO2 RAB26 SLP109 P0002 T00331017
KSLC 180154Z 14007KT 9SM -RA SCT045 BKN070 BKN095 04/M01 A2985 RMK AO2 RAE27B52 SLP101 P0000 T00391006
KSLC 180254Z 15011KT 7SM -RA FEW015 BKN022 OVC028 04/M01 A2987 RMK AO2 SLP109 P0007 60009 T00441006 55004
KSLC 180354Z 16007KT 8SM -RA FEW011 SCT016 OVC023 03/M01 A2987 RMK AO2 CIG 014 NW RNWY SLP109 P0013 T00331011
KSLC 180454Z 20008KT 6SM -RA SCT017 SCT022 OVC027 03/00 A2992 RMK AO2 SLP125 P0008 T00280000
KSLC 180554Z 00000KT 10SM BKN039 BKN070 BKN090 03/M01 A2996 RMK AO2 RAE06 SLP139 P0000 60030 T00331011 10044 20028 51025
KSLC 180654Z 00000KT 10SM FEW015 BKN055 BKN075 02/00 A2997 RMK AO2 SLP146 T00220000 400780022
KSLC 180754Z 18003KT 10SM FEW048 SCT075 BKN120 02/M01 A2998 RMK AO2 RAB18E46 CIG 060 NW RNWY SLP147 P0000 T00221006
KSLC 180854Z 00000KT 10SM BKN060 BKN120 02/00 A2999 RMK AO2 SLP153 60000 T00220000 51008



Page loaded:  09:10 UTC  |   01:10 AM Pacific  |   02:10 AM Mountain  |   03:10 AM Central  |   04:10 AM Eastern

 

ADVISORIES

FORECASTS

FORECASTS

OBSERVATIONS

USER TOOLS

ABOUT US